sensor_id;sensor_type;location;lat;lon;timestamp;pressure;altitude;pressure_sealevel;temperature;humidity
39699;BME280;25372;50.582;12.250;2023-11-21T00:06:02;99053.53;;;7.23;92.95
39699;BME280;25372;50.582;12.250;2023-11-21T00:16:25;99053.91;;;7.17;93.30
39699;BME280;25372;50.582;12.250;2023-11-21T00:26:46;99059.41;;;7.26;93.11
39699;BME280;25372;50.582;12.250;2023-11-21T00:37:09;99062.84;;;7.27;93.56
39699;BME280;25372;50.582;12.250;2023-11-21T00:47:31;99067.53;;;7.22;94.27
39699;BME280;25372;50.582;12.250;2023-11-21T00:57:53;99070.50;;;7.16;94.31
39699;BME280;25372;50.582;12.250;2023-11-21T01:08:14;99087.88;;;7.17;94.55
39699;BME280;25372;50.582;12.250;2023-11-21T01:18:37;99102.72;;;7.16;93.99
39699;BME280;25372;50.582;12.250;2023-11-21T01:28:58;99101.84;;;7.16;94.31
39699;BME280;25372;50.582;12.250;2023-11-21T01:39:20;99095.88;;;7.13;93.89
39699;BME280;25372;50.582;12.250;2023-11-21T01:49:43;99090.00;;;7.10;94.67
39699;BME280;25372;50.582;12.250;2023-11-21T02:00:07;99096.25;;;7.07;94.34
39699;BME280;25372;50.582;12.250;2023-11-21T02:10:34;99092.44;;;6.98;94.65
39699;BME280;25372;50.582;12.250;2023-11-21T02:20:58;99105.28;;;6.87;93.97
39699;BME280;25372;50.582;12.250;2023-11-21T02:31:23;99101.47;;;6.93;93.74
39699;BME280;25372;50.582;12.250;2023-11-21T02:41:44;99104.44;;;6.72;94.19
39699;BME280;25372;50.582;12.250;2023-11-21T02:52:06;99118.31;;;6.27;96.06
39699;BME280;25372;50.582;12.250;2023-11-21T03:02:27;99119.00;;;5.99;97.81
39699;BME280;25372;50.582;12.250;2023-11-21T03:12:49;99129.19;;;6.20;97.89
39699;BME280;25372;50.582;12.250;2023-11-21T03:23:10;99131.78;;;6.20;95.97
39699;BME280;25372;50.582;12.250;2023-11-21T03:33:32;99128.41;;;6.34;95.90
39699;BME280;25372;50.582;12.250;2023-11-21T03:43:54;99130.28;;;6.15;96.63
39699;BME280;25372;50.582;12.250;2023-11-21T03:54:16;99144.66;;;6.07;96.17
39699;BME280;25372;50.582;12.250;2023-11-21T04:04:38;99137.44;;;6.12;96.86
39699;BME280;25372;50.582;12.250;2023-11-21T04:15:00;99142.53;;;6.13;96.55
39699;BME280;25372;50.582;12.250;2023-11-21T04:25:22;99147.69;;;6.15;96.71
39699;BME280;25372;50.582;12.250;2023-11-21T04:35:45;99160.03;;;5.95;96.93
39699;BME280;25372;50.582;12.250;2023-11-21T04:46:05;99171.13;;;5.99;97.30
39699;BME280;25372;50.582;12.250;2023-11-21T04:56:28;99172.63;;;6.35;96.82
39699;BME280;25372;50.582;12.250;2023-11-21T05:06:49;99172.97;;;6.45;95.02
39699;BME280;25372;50.582;12.250;2023-11-21T05:17:11;99184.88;;;6.49;95.08
39699;BME280;25372;50.582;12.250;2023-11-21T05:27:32;99202.44;;;6.62;94.67
39699;BME280;25372;50.582;12.250;2023-11-21T05:37:54;99206.72;;;6.63;94.50
39699;BME280;25372;50.582;12.250;2023-11-21T05:48:15;99211.91;;;6.48;95.42
39699;BME280;25372;50.582;12.250;2023-11-21T05:58:37;99214.47;;;6.18;96.10
39699;BME280;25372;50.582;12.250;2023-11-21T06:08:58;99219.19;;;5.77;97.47
39699;BME280;25372;50.582;12.250;2023-11-21T06:19:20;99236.06;;;6.04;97.88
39699;BME280;25372;50.582;12.250;2023-11-21T06:29:41;99241.03;;;6.24;96.47
39699;BME280;25372;50.582;12.250;2023-11-21T06:40:04;99247.00;;;6.26;96.20
39699;BME280;25372;50.582;12.250;2023-11-21T06:50:26;99257.59;;;6.07;97.36
39699;BME280;25372;50.582;12.250;2023-11-21T07:00:48;99249.28;;;6.33;96.71
39699;BME280;25372;50.582;12.250;2023-11-21T07:11:09;99264.50;;;6.40;97.59
39699;BME280;25372;50.582;12.250;2023-11-21T07:21:31;99276.13;;;6.51;97.32
39699;BME280;25372;50.582;12.250;2023-11-21T07:31:52;99287.88;;;6.58;98.25
39699;BME280;25372;50.582;12.250;2023-11-21T07:42:14;99291.47;;;6.88;96.35
39699;BME280;25372;50.582;12.250;2023-11-21T07:52:36;99298.16;;;7.08;94.62
39699;BME280;25372;50.582;12.250;2023-11-21T08:02:58;99309.88;;;7.00;95.02
39699;BME280;25372;50.582;12.250;2023-11-21T08:13:19;99318.66;;;6.83;95.80
39699;BME280;25372;50.582;12.250;2023-11-21T08:23:41;99320.88;;;6.75;98.22
39699;BME280;25372;50.582;12.250;2023-11-21T08:34:02;99316.97;;;6.82;99.25
39699;BME280;25372;50.582;12.250;2023-11-21T08:44:24;99324.53;;;7.03;97.65
39699;BME280;25372;50.582;12.250;2023-11-21T08:54:45;99330.19;;;6.95;98.69
39699;BME280;25372;50.582;12.250;2023-11-21T09:05:09;99333.00;;;6.60;100.00
39699;BME280;25372;50.582;12.250;2023-11-21T09:15:30;99354.56;;;6.48;100.00
39699;BME280;25372;50.582;12.250;2023-11-21T09:25:52;99362.88;;;6.38;100.00
39699;BME280;25372;50.582;12.250;2023-11-21T09:36:16;99368.84;;;6.40;100.00
39699;BME280;25372;50.582;12.250;2023-11-21T09:46:40;99391.72;;;6.51;100.00
39699;BME280;25372;50.582;12.250;2023-11-21T09:57:02;99402.09;;;6.03;100.00
39699;BME280;25372;50.582;12.250;2023-11-21T10:07:25;99422.47;;;5.59;100.00
39699;BME280;25372;50.582;12.250;2023-11-21T10:17:48;99422.06;;;5.32;100.00
39699;BME280;25372;50.582;12.250;2023-11-21T10:28:10;99445.91;;;4.86;100.00
39699;BME280;25372;50.582;12.250;2023-11-21T10:38:33;99463.19;;;4.68;100.00
39699;BME280;25372;50.582;12.250;2023-11-21T10:48:58;99485.13;;;4.62;100.00
39699;BME280;25372;50.582;12.250;2023-11-21T10:59:19;99487.34;;;4.51;100.00
39699;BME280;25372;50.582;12.250;2023-11-21T11:09:46;99491.28;;;4.19;100.00
39699;BME280;25372;50.582;12.250;2023-11-21T11:20:08;99499.47;;;4.31;100.00
39699;BME280;25372;50.582;12.250;2023-11-21T11:30:41;99514.66;;;4.40;100.00
39699;BME280;25372;50.582;12.250;2023-11-21T11:41:06;99536.38;;;4.60;99.73
39699;BME280;25372;50.582;12.250;2023-11-21T11:51:29;99530.72;;;4.09;97.27
39699;BME280;25372;50.582;12.250;2023-11-21T12:01:51;99539.09;;;4.36;97.25
39699;BME280;25372;50.582;12.250;2023-11-21T12:12:13;99545.28;;;4.13;97.21
39699;BME280;25372;50.582;12.250;2023-11-21T12:22:36;99576.47;;;3.90;97.92
39699;BME280;25372;50.582;12.250;2023-11-21T12:32:59;99571.50;;;4.06;99.59
39699;BME280;25372;50.582;12.250;2023-11-21T12:43:21;99572.59;;;4.01;99.31
39699;BME280;25372;50.582;12.250;2023-11-21T12:53:43;99572.44;;;4.05;100.00
39699;BME280;25372;50.582;12.250;2023-11-21T13:04:07;99599.69;;;3.95;100.00
39699;BME280;25372;50.582;12.250;2023-11-21T13:14:31;99607.47;;;3.95;100.00
39699;BME280;25372;50.582;12.250;2023-11-21T13:24:52;99617.66;;;3.33;100.00
39699;BME280;25372;50.582;12.250;2023-11-21T13:35:15;99625.31;;;3.12;100.00
39699;BME280;25372;50.582;12.250;2023-11-21T13:45:40;99644.16;;;2.92;100.00
39699;BME280;25372;50.582;12.250;2023-11-21T13:56:03;99664.72;;;2.98;100.00
39699;BME280;25372;50.582;12.250;2023-11-21T14:06:24;99669.16;;;2.94;100.00
39699;BME280;25372;50.582;12.250;2023-11-21T14:16:55;99686.22;;;2.76;100.00
39699;BME280;25372;50.582;12.250;2023-11-21T14:27:17;99700.69;;;2.57;100.00
39699;BME280;25372;50.582;12.250;2023-11-21T14:37:39;99705.91;;;2.28;100.00
39699;BME280;25372;50.582;12.250;2023-11-21T14:47:59;99736.38;;;2.20;100.00
39699;BME280;25372;50.582;12.250;2023-11-21T14:58:27;99759.94;;;2.41;100.00
39699;BME280;25372;50.582;12.250;2023-11-21T15:08:48;99763.78;;;2.00;100.00
39699;BME280;25372;50.582;12.250;2023-11-21T15:19:14;99767.78;;;2.11;100.00
39699;BME280;25372;50.582;12.250;2023-11-21T15:29:38;99772.81;;;2.15;100.00
39699;BME280;25372;50.582;12.250;2023-11-21T15:40:01;99791.00;;;2.14;100.00
39699;BME280;25372;50.582;12.250;2023-11-21T15:50:25;99809.28;;;2.09;100.00
39699;BME280;25372;50.582;12.250;2023-11-21T16:00:48;99821.69;;;1.98;100.00
39699;BME280;25372;50.582;12.250;2023-11-21T16:11:08;99831.66;;;2.12;100.00
39699;BME280;25372;50.582;12.250;2023-11-21T16:21:30;99841.53;;;1.99;100.00
39699;BME280;25372;50.582;12.250;2023-11-21T16:31:51;99864.41;;;2.14;100.00
39699;BME280;25372;50.582;12.250;2023-11-21T16:42:15;99876.50;;;2.14;100.00
39699;BME280;25372;50.582;12.250;2023-11-21T16:52:36;99891.44;;;2.04;100.00
39699;BME280;25372;50.582;12.250;2023-11-21T17:02:59;99900.25;;;1.98;100.00
39699;BME280;25372;50.582;12.250;2023-11-21T17:13:20;99916.31;;;1.78;100.00
39699;BME280;25372;50.582;12.250;2023-11-21T17:23:43;99934.31;;;1.48;100.00
39699;BME280;25372;50.582;12.250;2023-11-21T17:34:03;99935.69;;;1.27;100.00
39699;BME280;25372;50.582;12.250;2023-11-21T17:44:26;99950.78;;;1.45;100.00
39699;BME280;25372;50.582;12.250;2023-11-21T17:54:46;99971.72;;;1.36;100.00
39699;BME280;25372;50.582;12.250;2023-11-21T18:05:09;99973.44;;;1.35;100.00
39699;BME280;25372;50.582;12.250;2023-11-21T18:15:31;99984.75;;;1.33;100.00
39699;BME280;25372;50.582;12.250;2023-11-21T18:25:53;100001.91;;;1.35;100.00
39699;BME280;25372;50.582;12.250;2023-11-21T18:36:15;100030.53;;;1.29;100.00
39699;BME280;25372;50.582;12.250;2023-11-21T18:46:37;100047.72;;;0.91;100.00
39699;BME280;25372;50.582;12.250;2023-11-21T18:56:59;100067.75;;;0.79;100.00
39699;BME280;25372;50.582;12.250;2023-11-21T19:07:22;100059.91;;;0.86;100.00
39699;BME280;25372;50.582;12.250;2023-11-21T19:17:43;100078.59;;;0.98;100.00
39699;BME280;25372;50.582;12.250;2023-11-21T19:28:05;100092.47;;;0.94;100.00
39699;BME280;25372;50.582;12.250;2023-11-21T19:38:26;100107.25;;;0.89;99.66
39699;BME280;25372;50.582;12.250;2023-11-21T19:48:49;100128.00;;;0.85;100.00
39699;BME280;25372;50.582;12.250;2023-11-21T19:59:12;100146.75;;;0.49;99.60
39699;BME280;25372;50.582;12.250;2023-11-21T20:09:36;100164.09;;;0.40;100.00
39699;BME280;25372;50.582;12.250;2023-11-21T20:19:57;100177.97;;;0.36;100.00
39699;BME280;25372;50.582;12.250;2023-11-21T20:30:20;100199.53;;;0.34;100.00
39699;BME280;25372;50.582;12.250;2023-11-21T20:40:42;100213.88;;;0.52;100.00
39699;BME280;25372;50.582;12.250;2023-11-21T20:51:05;100226.31;;;0.28;100.00
39699;BME280;25372;50.582;12.250;2023-11-21T21:01:26;100239.25;;;0.26;100.00
39699;BME280;25372;50.582;12.250;2023-11-21T21:11:48;100234.47;;;0.00;100.00
39699;BME280;25372;50.582;12.250;2023-11-21T21:22:09;100255.41;;;-0.23;100.00
39699;BME280;25372;50.582;12.250;2023-11-21T21:32:32;100264.81;;;-0.18;100.00
39699;BME280;25372;50.582;12.250;2023-11-21T21:42:55;100281.13;;;-0.16;100.00
39699;BME280;25372;50.582;12.250;2023-11-21T21:53:17;100307.16;;;-0.33;100.00
39699;BME280;25372;50.582;12.250;2023-11-21T22:03:38;100314.13;;;-0.41;100.00
39699;BME280;25372;50.582;12.250;2023-11-21T22:14:01;100327.16;;;-0.53;100.00
39699;BME280;25372;50.582;12.250;2023-11-21T22:24:22;100326.28;;;-0.49;100.00
39699;BME280;25372;50.582;12.250;2023-11-21T22:34:44;100323.88;;;-0.69;100.00
39699;BME280;25372;50.582;12.250;2023-11-21T22:45:06;100334.09;;;-0.62;100.00
39699;BME280;25372;50.582;12.250;2023-11-21T22:55:29;100325.56;;;-0.65;100.00
39699;BME280;25372;50.582;12.250;2023-11-21T23:05:49;100336.03;;;-0.82;100.00
39699;BME280;25372;50.582;12.250;2023-11-21T23:16:13;100335.94;;;-0.73;100.00
39699;BME280;25372;50.582;12.250;2023-11-21T23:26:36;100353.19;;;-0.77;100.00
39699;BME280;25372;50.582;12.250;2023-11-21T23:36:59;100365.44;;;-1.07;100.00
39699;BME280;25372;50.582;12.250;2023-11-21T23:47:19;100378.31;;;-1.02;100.00
39699;BME280;25372;50.582;12.250;2023-11-21T23:57:42;100392.84;;;-0.95;100.00
